sensor_id;sensor_type;location;lat;lon;timestamp;temperature;humidity
75091;DHT22;63674;48.048;8.306;2023-03-23T00:01:21;6.30;99.90
75091;DHT22;63674;48.048;8.306;2023-03-23T00:03:52;6.20;99.90
75091;DHT22;63674;48.048;8.306;2023-03-23T00:06:23;6.20;99.90
75091;DHT22;63674;48.048;8.306;2023-03-23T00:08:53;6.00;99.90
75091;DHT22;63674;48.048;8.306;2023-03-23T00:11:27;6.00;99.90
75091;DHT22;63674;48.048;8.306;2023-03-23T00:13:57;6.00;99.90
75091;DHT22;63674;48.048;8.306;2023-03-23T00:16:29;6.00;99.90
75091;DHT22;63674;48.048;8.306;2023-03-23T00:19:04;6.00;99.90
75091;DHT22;63674;48.048;8.306;2023-03-23T00:21:35;5.90;99.90
75091;DHT22;63674;48.048;8.306;2023-03-23T00:24:05;5.90;99.90
75091;DHT22;63674;48.048;8.306;2023-03-23T00:26:35;5.80;99.90
75091;DHT22;63674;48.048;8.306;2023-03-23T00:29:07;5.80;99.90
75091;DHT22;63674;48.048;8.306;2023-03-23T00:31:35;5.70;99.90
75091;DHT22;63674;48.048;8.306;2023-03-23T00:34:05;5.70;99.90
75091;DHT22;63674;48.048;8.306;2023-03-23T00:36:33;5.70;99.90
75091;DHT22;63674;48.048;8.306;2023-03-23T00:39:08;5.70;99.90
75091;DHT22;63674;48.048;8.306;2023-03-23T00:41:35;5.70;99.90
75091;DHT22;63674;48.048;8.306;2023-03-23T00:44:04;5.60;99.90
75091;DHT22;63674;48.048;8.306;2023-03-23T00:46:34;5.70;99.90
75091;DHT22;63674;48.048;8.306;2023-03-23T00:49:13;5.60;99.90
75091;DHT22;63674;48.048;8.306;2023-03-23T00:51:41;5.60;99.90
75091;DHT22;63674;48.048;8.306;2023-03-23T00:54:10;5.60;99.90
75091;DHT22;63674;48.048;8.306;2023-03-23T00:56:38;5.70;99.90
75091;DHT22;63674;48.048;8.306;2023-03-23T00:59:05;5.80;99.90
75091;DHT22;63674;48.048;8.306;2023-03-23T01:01:33;5.70;99.90
75091;DHT22;63674;48.048;8.306;2023-03-23T01:04:02;5.90;99.90
75091;DHT22;63674;48.048;8.306;2023-03-23T01:06:33;5.90;99.90
75091;DHT22;63674;48.048;8.306;2023-03-23T01:09:05;6.00;99.90
75091;DHT22;63674;48.048;8.306;2023-03-23T01:11:33;6.10;99.90
75091;DHT22;63674;48.048;8.306;2023-03-23T01:14:01;6.10;99.90
75091;DHT22;63674;48.048;8.306;2023-03-23T01:16:29;6.50;99.90
75091;DHT22;63674;48.048;8.306;2023-03-23T01:18:56;6.60;99.90
75091;DHT22;63674;48.048;8.306;2023-03-23T01:21:23;6.60;99.90
75091;DHT22;63674;48.048;8.306;2023-03-23T01:23:53;7.20;99.90
75091;DHT22;63674;48.048;8.306;2023-03-23T01:26:22;7.50;99.90
75091;DHT22;63674;48.048;8.306;2023-03-23T01:28:50;7.80;99.90
75091;DHT22;63674;48.048;8.306;2023-03-23T01:31:20;8.70;99.90
75091;DHT22;63674;48.048;8.306;2023-03-23T01:33:50;8.70;99.90
75091;DHT22;63674;48.048;8.306;2023-03-23T01:36:19;8.80;99.90
75091;DHT22;63674;48.048;8.306;2023-03-23T01:38:49;8.80;99.90
75091;DHT22;63674;48.048;8.306;2023-03-23T01:41:18;8.90;99.90
75091;DHT22;63674;48.048;8.306;2023-03-23T01:43:57;9.20;99.90
75091;DHT22;63674;48.048;8.306;2023-03-23T01:46:28;9.50;99.90
75091;DHT22;63674;48.048;8.306;2023-03-23T01:48:58;9.40;99.90
75091;DHT22;63674;48.048;8.306;2023-03-23T01:51:34;9.80;99.90
75091;DHT22;63674;48.048;8.306;2023-03-23T01:54:06;9.90;99.90
75091;DHT22;63674;48.048;8.306;2023-03-23T01:56:40;10.00;99.90
75091;DHT22;63674;48.048;8.306;2023-03-23T01:59:11;10.20;99.90
75091;DHT22;63674;48.048;8.306;2023-03-23T02:01:40;10.20;99.90
75091;DHT22;63674;48.048;8.306;2023-03-23T02:04:12;10.10;99.90
75091;DHT22;63674;48.048;8.306;2023-03-23T02:06:40;10.30;98.50
75091;DHT22;63674;48.048;8.306;2023-03-23T02:09:08;10.50;96.30
75091;DHT22;63674;48.048;8.306;2023-03-23T02:11:37;10.60;97.30
75091;DHT22;63674;48.048;8.306;2023-03-23T02:14:04;10.70;94.30
75091;DHT22;63674;48.048;8.306;2023-03-23T02:16:37;10.70;94.00
75091;DHT22;63674;48.048;8.306;2023-03-23T02:19:36;10.60;94.60
75091;DHT22;63674;48.048;8.306;2023-03-23T02:32:01;10.80;91.10
75091;DHT22;63674;48.048;8.306;2023-03-23T02:34:48;10.70;91.90
75091;DHT22;63674;48.048;8.306;2023-03-23T02:37:22;10.90;89.90
75091;DHT22;63674;48.048;8.306;2023-03-23T02:39:54;11.20;84.10
75091;DHT22;63674;48.048;8.306;2023-03-23T02:42:26;11.20;84.20
75091;DHT22;63674;48.048;8.306;2023-03-23T02:44:59;11.20;82.90
75091;DHT22;63674;48.048;8.306;2023-03-23T02:47:31;11.40;79.60
75091;DHT22;63674;48.048;8.306;2023-03-23T02:50:00;11.40;85.00
75091;DHT22;63674;48.048;8.306;2023-03-23T02:52:31;11.00;83.40
75091;DHT22;63674;48.048;8.306;2023-03-23T02:54:59;10.90;85.10
75091;DHT22;63674;48.048;8.306;2023-03-23T02:57:28;11.00;82.90
75091;DHT22;63674;48.048;8.306;2023-03-23T02:59:55;11.00;82.40
75091;DHT22;63674;48.048;8.306;2023-03-23T03:02:23;11.10;81.30
75091;DHT22;63674;48.048;8.306;2023-03-23T03:04:58;11.10;80.00
75091;DHT22;63674;48.048;8.306;2023-03-23T03:07:47;11.10;81.30
75091;DHT22;63674;48.048;8.306;2023-03-23T03:10:22;10.80;89.80
75091;DHT22;63674;48.048;8.306;2023-03-23T03:12:57;10.80;83.50
75091;DHT22;63674;48.048;8.306;2023-03-23T03:15:33;11.00;81.50
75091;DHT22;63674;48.048;8.306;2023-03-23T03:18:09;11.00;80.10
75091;DHT22;63674;48.048;8.306;2023-03-23T03:20:45;11.00;79.30
75091;DHT22;63674;48.048;8.306;2023-03-23T03:23:16;11.20;79.20
75091;DHT22;63674;48.048;8.306;2023-03-23T03:25:45;11.10;87.00
75091;DHT22;63674;48.048;8.306;2023-03-23T03:28:16;10.90;84.40
75091;DHT22;63674;48.048;8.306;2023-03-23T03:30:49;10.80;83.50
75091;DHT22;63674;48.048;8.306;2023-03-23T03:33:21;10.80;85.10
75091;DHT22;63674;48.048;8.306;2023-03-23T03:35:53;10.80;83.10
75091;DHT22;63674;48.048;8.306;2023-03-23T03:38:22;11.00;80.90
75091;DHT22;63674;48.048;8.306;2023-03-23T03:40:50;11.00;84.60
75091;DHT22;63674;48.048;8.306;2023-03-23T03:43:17;10.90;86.90
75091;DHT22;63674;48.048;8.306;2023-03-23T03:45:45;10.80;81.20
75091;DHT22;63674;48.048;8.306;2023-03-23T03:48:12;10.90;79.10
75091;DHT22;63674;48.048;8.306;2023-03-23T03:50:40;10.90;79.10
75091;DHT22;63674;48.048;8.306;2023-03-23T03:53:09;11.00;78.70
75091;DHT22;63674;48.048;8.306;2023-03-23T03:55:36;11.10;76.30
75091;DHT22;63674;48.048;8.306;2023-03-23T03:58:04;11.10;76.60
75091;DHT22;63674;48.048;8.306;2023-03-23T04:00:33;11.20;74.80
75091;DHT22;63674;48.048;8.306;2023-03-23T04:03:00;11.30;74.90
75091;DHT22;63674;48.048;8.306;2023-03-23T04:05:28;11.50;73.20
75091;DHT22;63674;48.048;8.306;2023-03-23T04:07:55;11.60;72.80
75091;DHT22;63674;48.048;8.306;2023-03-23T04:10:29;11.40;72.80
75091;DHT22;63674;48.048;8.306;2023-03-23T04:12:57;11.50;73.10
75091;DHT22;63674;48.048;8.306;2023-03-23T04:15:25;11.40;73.70
75091;DHT22;63674;48.048;8.306;2023-03-23T04:17:52;11.40;73.80
75091;DHT22;63674;48.048;8.306;2023-03-23T04:20:23;11.40;74.10
75091;DHT22;63674;48.048;8.306;2023-03-23T04:22:50;11.30;76.10
75091;DHT22;63674;48.048;8.306;2023-03-23T04:25:21;11.30;74.60
75091;DHT22;63674;48.048;8.306;2023-03-23T04:27:50;11.30;74.20
75091;DHT22;63674;48.048;8.306;2023-03-23T04:30:20;11.30;74.70
75091;DHT22;63674;48.048;8.306;2023-03-23T04:32:49;11.40;73.20
75091;DHT22;63674;48.048;8.306;2023-03-23T04:35:22;11.50;73.50
75091;DHT22;63674;48.048;8.306;2023-03-23T04:37:52;11.50;73.80
75091;DHT22;63674;48.048;8.306;2023-03-23T04:40:20;11.50;72.10
75091;DHT22;63674;48.048;8.306;2023-03-23T04:42:50;11.50;73.30
75091;DHT22;63674;48.048;8.306;2023-03-23T04:45:20;11.50;73.00
75091;DHT22;63674;48.048;8.306;2023-03-23T04:47:49;11.50;73.10
75091;DHT22;63674;48.048;8.306;2023-03-23T04:50:24;11.40;73.60
75091;DHT22;63674;48.048;8.306;2023-03-23T04:52:56;11.30;73.50
75091;DHT22;63674;48.048;8.306;2023-03-23T04:55:25;11.20;73.90
75091;DHT22;63674;48.048;8.306;2023-03-23T04:57:54;11.20;74.80
75091;DHT22;63674;48.048;8.306;2023-03-23T05:00:22;11.30;74.00
75091;DHT22;63674;48.048;8.306;2023-03-23T05:02:49;11.30;74.00
75091;DHT22;63674;48.048;8.306;2023-03-23T05:05:18;11.20;76.30
75091;DHT22;63674;48.048;8.306;2023-03-23T05:07:47;11.20;75.40
75091;DHT22;63674;48.048;8.306;2023-03-23T05:10:15;11.30;73.60
75091;DHT22;63674;48.048;8.306;2023-03-23T05:12:43;11.30;77.00
75091;DHT22;63674;48.048;8.306;2023-03-23T05:15:14;11.20;77.00
75091;DHT22;63674;48.048;8.306;2023-03-23T05:17:42;11.20;76.50
75091;DHT22;63674;48.048;8.306;2023-03-23T05:20:11;11.20;75.90
75091;DHT22;63674;48.048;8.306;2023-03-23T05:22:40;11.20;77.20
75091;DHT22;63674;48.048;8.306;2023-03-23T05:25:10;11.30;75.30
75091;DHT22;63674;48.048;8.306;2023-03-23T05:27:37;11.30;77.50
75091;DHT22;63674;48.048;8.306;2023-03-23T05:30:08;11.40;76.00
75091;DHT22;63674;48.048;8.306;2023-03-23T05:32:38;11.30;78.80
75091;DHT22;63674;48.048;8.306;2023-03-23T05:35:06;11.30;79.40
75091;DHT22;63674;48.048;8.306;2023-03-23T05:37:34;11.20;80.90
75091;DHT22;63674;48.048;8.306;2023-03-23T05:40:03;11.10;80.50
75091;DHT22;63674;48.048;8.306;2023-03-23T05:42:32;11.20;80.90
75091;DHT22;63674;48.048;8.306;2023-03-23T05:45:00;11.30;80.60
75091;DHT22;63674;48.048;8.306;2023-03-23T05:47:27;11.30;81.40
75091;DHT22;63674;48.048;8.306;2023-03-23T05:49:57;11.20;83.40
75091;DHT22;63674;48.048;8.306;2023-03-23T05:52:26;11.10;84.50
75091;DHT22;63674;48.048;8.306;2023-03-23T05:54:54;11.30;85.70
75091;DHT22;63674;48.048;8.306;2023-03-23T05:57:22;11.40;83.20
75091;DHT22;63674;48.048;8.306;2023-03-23T05:59:49;11.40;86.20
75091;DHT22;63674;48.048;8.306;2023-03-23T06:02:16;11.40;85.50
75091;DHT22;63674;48.048;8.306;2023-03-23T06:04:44;11.40;90.00
75091;DHT22;63674;48.048;8.306;2023-03-23T06:07:12;11.30;90.50
75091;DHT22;63674;48.048;8.306;2023-03-23T06:09:40;11.30;91.20
75091;DHT22;63674;48.048;8.306;2023-03-23T06:12:09;11.30;91.40
75091;DHT22;63674;48.048;8.306;2023-03-23T06:14:37;11.40;91.90
75091;DHT22;63674;48.048;8.306;2023-03-23T06:17:05;11.30;91.40
75091;DHT22;63674;48.048;8.306;2023-03-23T06:19:33;11.30;92.10
75091;DHT22;63674;48.048;8.306;2023-03-23T06:22:02;11.40;93.40
75091;DHT22;63674;48.048;8.306;2023-03-23T06:24:32;11.40;92.60
75091;DHT22;63674;48.048;8.306;2023-03-23T06:27:00;11.40;94.60
75091;DHT22;63674;48.048;8.306;2023-03-23T06:29:27;11.30;95.90
75091;DHT22;63674;48.048;8.306;2023-03-23T06:31:59;11.30;95.50
75091;DHT22;63674;48.048;8.306;2023-03-23T06:34:28;11.20;95.20
75091;DHT22;63674;48.048;8.306;2023-03-23T06:36:55;11.20;97.40
75091;DHT22;63674;48.048;8.306;2023-03-23T06:39:23;11.10;96.90
75091;DHT22;63674;48.048;8.306;2023-03-23T06:41:52;11.10;99.90
75091;DHT22;63674;48.048;8.306;2023-03-23T06:44:20;11.00;99.90
75091;DHT22;63674;48.048;8.306;2023-03-23T06:46:47;11.00;99.90
75091;DHT22;63674;48.048;8.306;2023-03-23T06:49:15;10.80;99.90
75091;DHT22;63674;48.048;8.306;2023-03-23T06:51:42;10.80;99.90
75091;DHT22;63674;48.048;8.306;2023-03-23T06:54:10;10.70;99.90
75091;DHT22;63674;48.048;8.306;2023-03-23T06:56:38;10.60;99.90
75091;DHT22;63674;48.048;8.306;2023-03-23T06:59:06;10.60;99.90
75091;DHT22;63674;48.048;8.306;2023-03-23T07:01:35;10.60;99.90
75091;DHT22;63674;48.048;8.306;2023-03-23T07:04:02;10.60;99.90
75091;DHT22;63674;48.048;8.306;2023-03-23T07:06:31;10.60;99.90
75091;DHT22;63674;48.048;8.306;2023-03-23T07:08:58;10.70;99.90
75091;DHT22;63674;48.048;8.306;2023-03-23T07:11:26;10.70;99.90
75091;DHT22;63674;48.048;8.306;2023-03-23T07:13:53;10.80;99.90
75091;DHT22;63674;48.048;8.306;2023-03-23T07:16:22;10.80;99.90
75091;DHT22;63674;48.048;8.306;2023-03-23T07:18:49;10.80;99.90
75091;DHT22;63674;48.048;8.306;2023-03-23T07:21:17;10.80;99.90
75091;DHT22;63674;48.048;8.306;2023-03-23T07:23:44;10.80;99.90
75091;DHT22;63674;48.048;8.306;2023-03-23T07:26:12;10.80;99.90
75091;DHT22;63674;48.048;8.306;2023-03-23T07:28:40;10.80;99.90
75091;DHT22;63674;48.048;8.306;2023-03-23T07:31:07;10.80;99.90
75091;DHT22;63674;48.048;8.306;2023-03-23T07:33:36;10.80;99.90
75091;DHT22;63674;48.048;8.306;2023-03-23T07:36:05;10.80;99.90
75091;DHT22;63674;48.048;8.306;2023-03-23T07:38:33;10.80;99.90
75091;DHT22;63674;48.048;8.306;2023-03-23T07:41:01;10.90;99.90
75091;DHT22;63674;48.048;8.306;2023-03-23T07:43:29;11.00;99.90
75091;DHT22;63674;48.048;8.306;2023-03-23T07:45:56;11.10;99.90
75091;DHT22;63674;48.048;8.306;2023-03-23T07:48:24;11.10;99.90
75091;DHT22;63674;48.048;8.306;2023-03-23T07:50:53;11.10;99.90
75091;DHT22;63674;48.048;8.306;2023-03-23T07:53:20;11.10;99.90
75091;DHT22;63674;48.048;8.306;2023-03-23T07:55:49;11.10;99.90
75091;DHT22;63674;48.048;8.306;2023-03-23T07:58:16;11.10;99.90
75091;DHT22;63674;48.048;8.306;2023-03-23T08:00:45;11.20;99.90
75091;DHT22;63674;48.048;8.306;2023-03-23T08:03:14;11.20;99.90
75091;DHT22;63674;48.048;8.306;2023-03-23T08:05:42;11.20;99.90
75091;DHT22;63674;48.048;8.306;2023-03-23T08:08:11;11.30;99.90
75091;DHT22;63674;48.048;8.306;2023-03-23T08:10:40;11.30;99.90
75091;DHT22;63674;48.048;8.306;2023-03-23T08:13:07;11.20;99.90
75091;DHT22;63674;48.048;8.306;2023-03-23T08:15:35;11.10;99.90
75091;DHT22;63674;48.048;8.306;2023-03-23T08:18:03;11.10;99.90
75091;DHT22;63674;48.048;8.306;2023-03-23T08:20:32;11.10;99.90
75091;DHT22;63674;48.048;8.306;2023-03-23T08:22:59;11.00;99.90
75091;DHT22;63674;48.048;8.306;2023-03-23T08:25:30;11.00;99.90
75091;DHT22;63674;48.048;8.306;2023-03-23T08:27:58;10.90;99.90
75091;DHT22;63674;48.048;8.306;2023-03-23T08:30:28;10.80;99.90
75091;DHT22;63674;48.048;8.306;2023-03-23T08:32:59;10.90;99.90
75091;DHT22;63674;48.048;8.306;2023-03-23T08:35:27;10.90;99.90
75091;DHT22;63674;48.048;8.306;2023-03-23T08:37:55;10.80;99.90
75091;DHT22;63674;48.048;8.306;2023-03-23T08:40:24;10.80;99.90
75091;DHT22;63674;48.048;8.306;2023-03-23T08:42:54;10.80;99.90
75091;DHT22;63674;48.048;8.306;2023-03-23T08:45:23;10.80;99.90
75091;DHT22;63674;48.048;8.306;2023-03-23T08:47:52;10.80;99.90
75091;DHT22;63674;48.048;8.306;2023-03-23T08:50:23;10.70;99.90
75091;DHT22;63674;48.048;8.306;2023-03-23T08:52:53;10.70;99.90
75091;DHT22;63674;48.048;8.306;2023-03-23T08:55:21;10.70;99.90
75091;DHT22;63674;48.048;8.306;2023-03-23T08:57:50;10.80;99.90
75091;DHT22;63674;48.048;8.306;2023-03-23T09:00:21;10.90;99.90
75091;DHT22;63674;48.048;8.306;2023-03-23T09:02:53;11.10;99.90
75091;DHT22;63674;48.048;8.306;2023-03-23T09:05:24;11.20;99.90
75091;DHT22;63674;48.048;8.306;2023-03-23T09:07:58;11.20;99.90
75091;DHT22;63674;48.048;8.306;2023-03-23T09:10:26;11.20;99.90
75091;DHT22;63674;48.048;8.306;2023-03-23T09:12:56;11.20;99.90
75091;DHT22;63674;48.048;8.306;2023-03-23T09:15:25;11.20;99.90
75091;DHT22;63674;48.048;8.306;2023-03-23T09:17:53;11.20;99.90
75091;DHT22;63674;48.048;8.306;2023-03-23T09:20:25;11.20;99.90
75091;DHT22;63674;48.048;8.306;2023-03-23T09:22:55;11.30;99.90
75091;DHT22;63674;48.048;8.306;2023-03-23T09:25:26;11.20;99.90
75091;DHT22;63674;48.048;8.306;2023-03-23T09:27:56;11.30;99.90
75091;DHT22;63674;48.048;8.306;2023-03-23T09:30:28;11.40;99.90
75091;DHT22;63674;48.048;8.306;2023-03-23T09:33:00;11.60;99.90
75091;DHT22;63674;48.048;8.306;2023-03-23T09:35:32;11.60;99.90
75091;DHT22;63674;48.048;8.306;2023-03-23T09:38:00;11.60;99.90
75091;DHT22;63674;48.048;8.306;2023-03-23T09:40:32;11.60;99.90
75091;DHT22;63674;48.048;8.306;2023-03-23T09:43:39;11.70;99.90
75091;DHT22;63674;48.048;8.306;2023-03-23T09:46:24;11.80;99.90
75091;DHT22;63674;48.048;8.306;2023-03-23T09:48:59;11.80;99.90
75091;DHT22;63674;48.048;8.306;2023-03-23T09:51:41;11.90;99.90
75091;DHT22;63674;48.048;8.306;2023-03-23T09:54:16;11.80;99.90
75091;DHT22;63674;48.048;8.306;2023-03-23T09:56:46;11.80;99.90
75091;DHT22;63674;48.048;8.306;2023-03-23T09:59:19;11.70;99.90
75091;DHT22;63674;48.048;8.306;2023-03-23T10:01:51;11.80;99.90
75091;DHT22;63674;48.048;8.306;2023-03-23T10:04:30;11.70;99.90
75091;DHT22;63674;48.048;8.306;2023-03-23T10:07:09;11.80;99.90
75091;DHT22;63674;48.048;8.306;2023-03-23T10:09:38;11.90;99.90
75091;DHT22;63674;48.048;8.306;2023-03-23T10:12:13;11.80;99.90
75091;DHT22;63674;48.048;8.306;2023-03-23T10:14:59;11.90;99.90
75091;DHT22;63674;48.048;8.306;2023-03-23T10:17:38;11.90;99.90
75091;DHT22;63674;48.048;8.306;2023-03-23T10:20:22;11.90;99.90
75091;DHT22;63674;48.048;8.306;2023-03-23T10:23:00;12.00;99.90
75091;DHT22;63674;48.048;8.306;2023-03-23T10:25:35;12.10;99.90
75091;DHT22;63674;48.048;8.306;2023-03-23T10:28:09;12.10;99.90
75091;DHT22;63674;48.048;8.306;2023-03-23T10:30:40;12.10;99.90
75091;DHT22;63674;48.048;8.306;2023-03-23T10:33:16;12.10;99.90
75091;DHT22;63674;48.048;8.306;2023-03-23T10:35:50;12.30;99.90
75091;DHT22;63674;48.048;8.306;2023-03-23T10:38:25;12.50;99.90
75091;DHT22;63674;48.048;8.306;2023-03-23T10:41:02;12.80;99.90
75091;DHT22;63674;48.048;8.306;2023-03-23T10:43:34;13.00;99.90
75091;DHT22;63674;48.048;8.306;2023-03-23T10:46:05;13.10;99.90
75091;DHT22;63674;48.048;8.306;2023-03-23T10:48:38;13.00;99.90
75091;DHT22;63674;48.048;8.306;2023-03-23T10:51:11;13.00;99.90
75091;DHT22;63674;48.048;8.306;2023-03-23T10:53:45;13.00;99.90
75091;DHT22;63674;48.048;8.306;2023-03-23T10:56:22;13.00;99.90
75091;DHT22;63674;48.048;8.306;2023-03-23T10:58:51;12.90;99.90
75091;DHT22;63674;48.048;8.306;2023-03-23T11:01:20;13.00;99.90
75091;DHT22;63674;48.048;8.306;2023-03-23T11:03:57;13.10;99.90
75091;DHT22;63674;48.048;8.306;2023-03-23T11:06:29;13.20;99.90
75091;DHT22;63674;48.048;8.306;2023-03-23T11:09:03;13.30;99.90
75091;DHT22;63674;48.048;8.306;2023-03-23T11:11:39;13.40;99.90
75091;DHT22;63674;48.048;8.306;2023-03-23T11:14:17;13.40;99.90
75091;DHT22;63674;48.048;8.306;2023-03-23T11:16:50;13.50;99.50
75091;DHT22;63674;48.048;8.306;2023-03-23T11:19:25;13.50;99.90
75091;DHT22;63674;48.048;8.306;2023-03-23T11:21:59;13.50;99.90
75091;DHT22;63674;48.048;8.306;2023-03-23T11:24:34;13.50;99.90
75091;DHT22;63674;48.048;8.306;2023-03-23T11:27:03;13.50;98.20
75091;DHT22;63674;48.048;8.306;2023-03-23T11:29:33;13.40;99.90
75091;DHT22;63674;48.048;8.306;2023-03-23T11:32:05;13.40;99.90
75091;DHT22;63674;48.048;8.306;2023-03-23T11:34:40;13.50;99.90
75091;DHT22;63674;48.048;8.306;2023-03-23T11:37:10;13.50;99.90
75091;DHT22;63674;48.048;8.306;2023-03-23T11:39:53;13.70;99.90
75091;DHT22;63674;48.048;8.306;2023-03-23T11:42:24;13.90;99.90
75091;DHT22;63674;48.048;8.306;2023-03-23T11:45:03;14.10;99.90
75091;DHT22;63674;48.048;8.306;2023-03-23T11:47:43;14.10;98.70
75091;DHT22;63674;48.048;8.306;2023-03-23T11:50:21;13.90;96.00
75091;DHT22;63674;48.048;8.306;2023-03-23T11:52:57;13.90;94.50
75091;DHT22;63674;48.048;8.306;2023-03-23T11:55:36;13.90;97.60
75091;DHT22;63674;48.048;8.306;2023-03-23T11:58:19;13.90;93.60
75091;DHT22;63674;48.048;8.306;2023-03-23T12:00:51;13.90;93.20
75091;DHT22;63674;48.048;8.306;2023-03-23T12:03:28;14.00;96.20
75091;DHT22;63674;48.048;8.306;2023-03-23T12:06:09;14.00;94.90
75091;DHT22;63674;48.048;8.306;2023-03-23T12:08:56;14.00;92.50
75091;DHT22;63674;48.048;8.306;2023-03-23T12:11:37;14.10;97.90
75091;DHT22;63674;48.048;8.306;2023-03-23T12:14:25;14.20;97.00
75091;DHT22;63674;48.048;8.306;2023-03-23T12:17:07;14.30;94.40
75091;DHT22;63674;48.048;8.306;2023-03-23T12:19:48;14.40;92.80
75091;DHT22;63674;48.048;8.306;2023-03-23T12:22:34;14.40;84.10
75091;DHT22;63674;48.048;8.306;2023-03-23T12:25:20;14.40;93.50
75091;DHT22;63674;48.048;8.306;2023-03-23T12:28:06;14.40;88.10
75091;DHT22;63674;48.048;8.306;2023-03-23T12:30:42;14.40;90.20
75091;DHT22;63674;48.048;8.306;2023-03-23T12:33:33;14.40;83.90
75091;DHT22;63674;48.048;8.306;2023-03-23T12:36:19;14.30;88.00
75091;DHT22;63674;48.048;8.306;2023-03-23T12:39:13;14.30;91.40
75091;DHT22;63674;48.048;8.306;2023-03-23T12:42:02;14.30;90.80
75091;DHT22;63674;48.048;8.306;2023-03-23T12:44:40;14.40;86.10
75091;DHT22;63674;48.048;8.306;2023-03-23T12:47:25;14.40;86.20
75091;DHT22;63674;48.048;8.306;2023-03-23T12:50:02;14.40;92.10
75091;DHT22;63674;48.048;8.306;2023-03-23T12:52:39;14.30;83.70
75091;DHT22;63674;48.048;8.306;2023-03-23T12:55:18;14.20;78.30
75091;DHT22;63674;48.048;8.306;2023-03-23T12:57:53;14.00;81.60
75091;DHT22;63674;48.048;8.306;2023-03-23T13:00:28;13.90;85.50
75091;DHT22;63674;48.048;8.306;2023-03-23T13:03:02;13.90;85.30
75091;DHT22;63674;48.048;8.306;2023-03-23T13:05:42;14.00;86.80
75091;DHT22;63674;48.048;8.306;2023-03-23T13:08:14;13.90;86.30
75091;DHT22;63674;48.048;8.306;2023-03-23T13:10:47;13.80;87.40
75091;DHT22;63674;48.048;8.306;2023-03-23T13:13:19;13.80;90.00
75091;DHT22;63674;48.048;8.306;2023-03-23T13:15:56;13.70;89.40
75091;DHT22;63674;48.048;8.306;2023-03-23T13:18:36;13.80;92.80
75091;DHT22;63674;48.048;8.306;2023-03-23T13:21:12;13.70;89.50
75091;DHT22;63674;48.048;8.306;2023-03-23T13:23:45;13.50;94.40
75091;DHT22;63674;48.048;8.306;2023-03-23T13:26:20;13.40;96.70
75091;DHT22;63674;48.048;8.306;2023-03-23T13:28:57;13.30;95.00
75091;DHT22;63674;48.048;8.306;2023-03-23T13:31:29;13.20;98.30
75091;DHT22;63674;48.048;8.306;2023-03-23T13:34:02;13.20;99.90
75091;DHT22;63674;48.048;8.306;2023-03-23T13:36:36;13.20;99.90
75091;DHT22;63674;48.048;8.306;2023-03-23T13:39:06;13.10;99.90
75091;DHT22;63674;48.048;8.306;2023-03-23T13:42:03;13.20;99.90
75091;DHT22;63674;48.048;8.306;2023-03-23T13:44:44;13.10;99.90
75091;DHT22;63674;48.048;8.306;2023-03-23T13:47:26;12.90;99.90
75091;DHT22;63674;48.048;8.306;2023-03-23T13:49:58;12.80;99.90
75091;DHT22;63674;48.048;8.306;2023-03-23T13:52:38;12.80;99.90
75091;DHT22;63674;48.048;8.306;2023-03-23T13:55:21;12.80;99.90
75091;DHT22;63674;48.048;8.306;2023-03-23T13:58:08;12.80;99.90
75091;DHT22;63674;48.048;8.306;2023-03-23T14:00:47;12.80;99.90
75091;DHT22;63674;48.048;8.306;2023-03-23T14:03:19;12.80;99.90
75091;DHT22;63674;48.048;8.306;2023-03-23T14:06:02;12.80;99.90
75091;DHT22;63674;48.048;8.306;2023-03-23T14:08:40;12.70;99.90
75091;DHT22;63674;48.048;8.306;2023-03-23T14:11:13;12.70;99.90
75091;DHT22;63674;48.048;8.306;2023-03-23T14:13:46;12.70;99.90
75091;DHT22;63674;48.048;8.306;2023-03-23T14:16:20;12.70;99.90
75091;DHT22;63674;48.048;8.306;2023-03-23T14:18:51;12.70;99.90
75091;DHT22;63674;48.048;8.306;2023-03-23T14:21:33;12.70;99.90
75091;DHT22;63674;48.048;8.306;2023-03-23T14:24:03;12.70;99.90
75091;DHT22;63674;48.048;8.306;2023-03-23T14:26:34;12.60;99.90
75091;DHT22;63674;48.048;8.306;2023-03-23T14:29:05;12.40;99.90
75091;DHT22;63674;48.048;8.306;2023-03-23T14:31:35;12.50;99.90
75091;DHT22;63674;48.048;8.306;2023-03-23T14:34:05;12.50;99.90
75091;DHT22;63674;48.048;8.306;2023-03-23T14:36:39;12.40;99.90
75091;DHT22;63674;48.048;8.306;2023-03-23T14:39:19;12.40;99.90
75091;DHT22;63674;48.048;8.306;2023-03-23T14:41:48;12.50;99.90
75091;DHT22;63674;48.048;8.306;2023-03-23T14:44:22;12.60;99.90
75091;DHT22;63674;48.048;8.306;2023-03-23T14:46:53;12.60;99.90
75091;DHT22;63674;48.048;8.306;2023-03-23T14:49:27;12.50;99.90
75091;DHT22;63674;48.048;8.306;2023-03-23T14:51:57;12.50;99.90
75091;DHT22;63674;48.048;8.306;2023-03-23T14:54:31;12.50;99.90
75091;DHT22;63674;48.048;8.306;2023-03-23T14:57:05;12.60;99.90
75091;DHT22;63674;48.048;8.306;2023-03-23T14:59:41;12.60;99.90
75091;DHT22;63674;48.048;8.306;2023-03-23T15:02:12;12.60;99.90
75091;DHT22;63674;48.048;8.306;2023-03-23T15:04:43;12.60;99.90
75091;DHT22;63674;48.048;8.306;2023-03-23T15:07:13;12.40;99.90
75091;DHT22;63674;48.048;8.306;2023-03-23T15:09:43;12.30;99.90
75091;DHT22;63674;48.048;8.306;2023-03-23T15:12:20;12.30;99.90
75091;DHT22;63674;48.048;8.306;2023-03-23T15:14:53;12.40;99.90
75091;DHT22;63674;48.048;8.306;2023-03-23T15:17:24;12.40;99.90
75091;DHT22;63674;48.048;8.306;2023-03-23T15:19:52;12.40;99.90
75091;DHT22;63674;48.048;8.306;2023-03-23T15:22:24;12.50;99.90
75091;DHT22;63674;48.048;8.306;2023-03-23T15:24:53;12.50;99.90
75091;DHT22;63674;48.048;8.306;2023-03-23T15:27:31;12.50;99.90
75091;DHT22;63674;48.048;8.306;2023-03-23T15:30:13;12.40;99.90
75091;DHT22;63674;48.048;8.306;2023-03-23T15:32:44;12.40;99.90
75091;DHT22;63674;48.048;8.306;2023-03-23T15:35:15;12.40;99.90
75091;DHT22;63674;48.048;8.306;2023-03-23T15:37:44;12.30;99.90
75091;DHT22;63674;48.048;8.306;2023-03-23T15:40:18;12.30;99.90
75091;DHT22;63674;48.048;8.306;2023-03-23T15:42:47;12.30;99.90
75091;DHT22;63674;48.048;8.306;2023-03-23T15:45:25;12.30;99.90
75091;DHT22;63674;48.048;8.306;2023-03-23T15:47:57;12.30;99.90
75091;DHT22;63674;48.048;8.306;2023-03-23T15:50:33;12.20;99.90
75091;DHT22;63674;48.048;8.306;2023-03-23T15:53:22;12.10;99.90
75091;DHT22;63674;48.048;8.306;2023-03-23T15:55:53;12.20;99.90
75091;DHT22;63674;48.048;8.306;2023-03-23T15:58:21;12.10;99.90
75091;DHT22;63674;48.048;8.306;2023-03-23T16:00:51;12.10;99.90
75091;DHT22;63674;48.048;8.306;2023-03-23T16:03:22;12.10;99.90
75091;DHT22;63674;48.048;8.306;2023-03-23T16:05:54;12.10;99.90
75091;DHT22;63674;48.048;8.306;2023-03-23T16:08:23;12.00;99.90
75091;DHT22;63674;48.048;8.306;2023-03-23T16:10:52;11.90;99.90
75091;DHT22;63674;48.048;8.306;2023-03-23T16:13:20;11.90;99.90